Latest Weather Observations for Sellicks Hill

IDS60801

Issued at 2:35 pm CST Friday 29 August 2014 (issued every 30 minutes, with the page automatically refreshed every 10 minutes)

About weather observations | Map of weather stations | Latest weather observations for SA | Other Formats
Station Details ID: 023886 Name: MOUNT TERRIBLE RADAR Lat: -35.33 Lon: 138.50 Height: 385.7 m
Data from the previous 72 hours. | See also: Recent months for locations in South Australia
Date/Time
CST
Temp
°C
App
Temp
°C
Dew
Point
Rel
Hum
%
Delta-T
°C
Wind Press
QNH
hPa
Press
MSL
hPa
Rain
since 9 am
mm
Dir
 
Spd
km/h
Gust
km/h
Spd
kts
Gust
kts
29/02:30pm - - - - - N 4 7 2 4 - - -
29/02:00pm - - - - - NNW 7 13 4 7 - - -
29/01:30pm - - - - - NNW 9 17 5 9 - - -
29/01:00pm - - - - - NNW 9 15 5 8 - - -
29/12:30pm - - - - - NNW 11 15 6 8 - - -
29/12:00pm - - - - - NNW 11 19 6 10 - - -
29/11:30am - - - - - NNW 11 19 6 10 - - -
29/11:00am - - - - - NNW 9 17 5 9 - - -
29/10:30am - - - - - NNW 9 17 5 9 - - -
29/10:00am - - - - - N 7 15 4 8 - - -
29/09:30am - - - - - N 7 13 4 7 - - -
29/09:00am - - - - - N 6 11 3 6 - - -
29/08:30am - - - - - N 4 7 2 4 - - -
29/08:00am - - - - - N 4 9 2 5 - - -
29/07:30am - - - - - NNE 2 7 1 4 - - -
29/07:00am - - - - - NE 4 6 2 3 - - -
29/06:30am - - - - - ENE 4 7 2 4 - - -
29/06:00am - - - - - ESE 4 7 2 4 - - -
29/05:30am - - - - - SSE 4 6 2 3 - - -
29/05:00am - - - - - CALM 0 4 0 2 - - -
29/04:30am - - - - - CALM 0 4 0 2 - - -
29/04:00am - - - - - ESE 11 13 6 7 - - -
29/03:30am - - - - - SE 7 13 4 7 - - -
29/03:00am - - - - - N 6 7 3 4 - - -
29/02:30am - - - - - N 4 6 2 3 - - -
29/02:00am - - - - - N 2 4 1 2 - - -
29/01:30am - - - - - NE 4 6 2 3 - - -
29/01:00am - - - - - ENE 4 7 2 4 - - -
29/12:30am - - - - - E 2 4 1 2 - - -
29/12:00am - - - - - ENE 6 7 3 4 - - -
 
Date/Time
CST
Temp
°C
App
Temp
°C
Dew
Point
Rel
Hum
%
Delta-T
°C
Wind Press
QNH
hPa
Press
MSL
hPa
Rain
since 9 am
mm
Dir
 
Spd
km/h
Gust
km/h
Spd
kts
Gust
kts
28/11:30pm - - - - - E 7 11 4 6 - - -
28/11:00pm - - - - - ESE 13 15 7 8 - - -
28/10:30pm - - - - - ESE 9 11 5 6 - - -
28/10:00pm - - - - - CALM 0 0 0 0 - - -
28/09:30pm - - - - - SE 4 4 2 2 - - -
28/09:00pm - - - - - SE 6 7 3 4 - - -
28/08:30pm - - - - - CALM 0 0 0 0 - - -
28/08:00pm - - - - - CALM 0 0 0 0 - - -
28/07:30pm - - - - - S 6 7 3 4 - - -
28/07:00pm - - - - - WSW 4 9 2 5 - - -
28/06:30pm - - - - - NW 6 6 3 3 - - -
28/06:00pm - - - - - N 6 7 3 4 - - -
28/05:30pm - - - - - NNW 6 7 3 4 - - -
28/05:00pm - - - - - NNW 6 9 3 5 - - -
28/04:30pm - - - - - NNW 7 13 4 7 - - -
28/04:00pm - - - - - NNW 7 17 4 9 - - -
28/03:30pm - - - - - NNW 7 13 4 7 - - -
28/03:00pm - - - - - NNW 6 11 3 6 - - -
28/02:30pm - - - - - NNW 7 13 4 7 - - -
28/02:00pm - - - - - NNW 9 15 5 8 - - -
28/01:30pm - - - - - NNW 9 17 5 9 - - -
28/01:00pm - - - - - NNW 9 15 5 8 - - -
28/12:30pm - - - - - NNW 7 13 4 7 - - -
28/12:00pm - - - - - NNW 7 15 4 8 - - -
28/11:30am - - - - - NNW 9 15 5 8 - - -
28/11:00am - - - - - NNW 7 13 4 7 - - -
28/10:30am - - - - - NNW 7 13 4 7 - - -
28/10:00am - - - - - N 7 13 4 7 - - -
28/09:30am - - - - - N 6 9 3 5 - - -
28/09:00am - - - - - N 4 7 2 4 - - -
28/08:30am - - - - - N 4 9 2 5 - - -
28/08:00am - - - - - N 4 7 2 4 - - -
28/07:30am - - - - - N 6 7 3 4 - - -
28/07:00am - - - - - N 2 4 1 2 - - -
28/06:30am - - - - - CALM 0 2 0 1 - - -
28/06:00am - - - - - NNE 2 6 1 3 - - -
28/05:30am - - - - - CALM 0 7 0 4 - - -
28/05:00am - - - - - NE 4 6 2 3 - - -
28/04:30am - - - - - NE 4 7 2 4 - - -
28/04:00am - - - - - SE 2 4 1 2 - - -
28/03:30am - - - - - SSE 2 4 1 2 - - -
28/03:00am - - - - - SE 6 9 3 5 - - -
28/02:30am - - - - - ESE 6 9 3 5 - - -
28/02:00am - - - - - E 7 13 4 7 - - -
28/01:30am - - - - - ESE 15 19 8 10 - - -
28/01:00am - - - - - ESE 13 17 7 9 - - -
28/12:30am - - - - - E 15 19 8 10 - - -
28/12:00am - - - - - ESE 17 19 9 10 - - -
 
Date/Time
CST
Temp
°C
App
Temp
°C
Dew
Point
Rel
Hum
%
Delta-T
°C
Wind Press
QNH
hPa
Press
MSL
hPa
Rain
since 9 am
mm
Dir
 
Spd
km/h
Gust
km/h
Spd
kts
Gust
kts
27/11:30pm - - - - - ESE 17 19 9 10 - - -
27/11:00pm - - - - - ESE 17 20 9 11 - - -
27/10:30pm - - - - - E 13 17 7 9 - - -
27/10:00pm - - - - - E 17 20 9 11 - - -
27/09:30pm - - - - - E 13 17 7 9 - - -
27/09:00pm - - - - - E 15 19 8 10 - - -
27/08:30pm - - - - - E 15 19 8 10 - - -
27/08:00pm - - - - - ESE 13 17 7 9 - - -
27/07:30pm - - - - - ESE 15 17 8 9 - - -
27/07:00pm - - - - - SE 15 19 8 10 - - -
27/06:30pm - - - - - SSE 11 13 6 7 - - -
27/06:00pm - - - - - S 4 6 2 3 - - -
27/05:30pm - - - - - CALM 0 2 0 1 - - -
27/05:00pm - - - - - CALM 0 6 0 3 - - -
27/04:30pm - - - - - NW 4 9 2 5 - - -
27/04:00pm - - - - - NW 6 9 3 5 - - -
27/03:30pm - - - - - NNW 7 11 4 6 - - -
27/03:00pm - - - - - NW 6 11 3 6 - - -
27/02:30pm - - - - - NW 6 11 3 6 - - -
27/02:00pm - - - - - NNW 4 9 2 5 - - -
27/01:30pm - - - - - NNW 7 13 4 7 - - -
27/01:00pm - - - - - NNW 9 17 5 9 - - -
27/12:30pm - - - - - NNW 9 15 5 8 - - -
27/12:00pm - - - - - NNW 9 13 5 7 - - -
27/11:30am - - - - - NNW 7 13 4 7 - - -
27/11:00am - - - - - NNW 7 13 4 7 - - -
27/10:30am - - - - - NNW 7 11 4 6 - - -
27/10:00am - - - - - N 4 9 2 5 - - -
27/09:30am - - - - - N 6 15 3 8 - - -
27/09:00am - - - - - N 7 17 4 9 - - -
27/08:30am - - - - - N 6 11 3 6 - - -
27/08:00am - - - - - NNE 6 15 3 8 - - -
27/07:30am - - - - - NNE 7 13 4 7 - - -
27/07:00am - - - - - NNE 6 9 3 5 - - -
27/06:30am - - - - - NNE 7 13 4 7 - - -
27/06:00am - - - - - NNE 6 9 3 5 - - -
27/05:30am - - - - - NE 6 11 3 6 - - -
27/05:00am - - - - - ESE 4 6 2 3 - - -
27/04:30am - - - - - SE 4 6 2 3 - - -
27/04:00am - - - - - ESE 4 6 2 3 - - -
27/03:30am - - - - - E 4 6 2 3 - - -
27/03:00am - - - - - SE 4 6 2 3 - - -
27/02:30am - - - - - NE 6 9 3 5 - - -
27/02:00am - - - - - NNE 7 13 4 7 - - -
27/01:30am - - - - - NE 7 11 4 6 - - -
27/01:00am - - - - - ENE 7 9 4 5 - - -
27/12:30am - - - - - ENE 7 9 4 5 - - -
27/12:00am - - - - - ENE 7 11 4 6 - - -
 
Date/Time
CST
Temp
°C
App
Temp
°C
Dew
Point
Rel
Hum
%
Delta-T
°C
Wind Press
QNH
hPa
Press
MSL
hPa
Rain
since 9 am
mm
Dir
 
Spd
km/h
Gust
km/h
Spd
kts
Gust
kts
26/11:30pm - - - - - E 7 11 4 6 - - -
26/11:00pm - - - - - ENE 6 9 3 5 - - -
26/10:30pm - - - - - ENE 7 9 4 5 - - -
26/10:00pm - - - - - ENE 7 11 4 6 - - -
26/09:30pm - - - - - E 11 15 6 8 - - -
26/09:00pm - - - - - E 9 19 5 10 - - -
26/08:30pm - - - - - E 11 17 6 9 - - -
26/08:00pm - - - - - E 13 17 7 9 - - -
26/07:30pm - - - - - E 13 19 7 10 - - -
26/07:00pm - - - - - E 13 19 7 10 - - -
26/06:30pm - - - - - E 13 17 7 9 - - -
26/06:00pm - - - - - SE 6 7 3 4 - - -
26/05:30pm - - - - - CALM 0 0 0 0 - - -
26/05:00pm - - - - - CALM 0 0 0 0 - - -
26/04:30pm - - - - - CALM 0 0 0 0 - - -
26/04:00pm - - - - - CALM 0 2 0 1 - - -
26/03:30pm - - - - - W 4 7 2 4 - - -
26/03:00pm - - - - - W 6 11 3 6 - - -

Other Formats:

Comma delimited format used in spreadsheet applications
http://www.bom.gov.au/fwo/IDS60801/IDS60801.95679.axf

JavaScript Object Notation format (JSON) in row-major order
http://www.bom.gov.au/fwo/IDS60801/IDS60801.95679.json